Time;durP1;ratioP1;P1;durP2;ratioP2;P2;SDS_P1;SDS_P2;PMS_P1;PMS_P2;Temp;Humidity;BMP_temperature;BMP_pressure;BME280_temperature;BME280_humidity;BME280_pressure;Samples;Min_cycle;Max_cycle;Signal;HPM_P1;HPM_P2
2022/04/07 00:02:06;;;;;;;6.93;2.53;;;12.50;99.90;;;;;;4901000;29;20036;-87
2022/04/07 00:04:33;;;;;;;5.03;2.25;;;12.50;99.90;;;;;;4900778;29;20024;-87
2022/04/07 00:07:00;;;;;;;5.32;2.45;;;12.50;99.90;;;;;;4900959;29;20054;-86
2022/04/07 00:09:29;;;;;;;1.63;1.35;;;12.50;99.90;;;;;;4887296;29;20036;-85
2022/04/07 00:11:56;;;;;;;4.03;1.80;;;12.60;99.90;;;;;;4892458;29;20191;-87
2022/04/07 00:14:23;;;;;;;5.03;1.80;;;12.60;99.90;;;;;;4870438;29;20104;-86
2022/04/07 00:16:49;;;;;;;3.72;1.50;;;12.60;99.90;;;;;;4870550;29;20037;-87
2022/04/07 00:19:16;;;;;;;5.15;1.77;;;12.60;99.90;;;;;;4870263;29;20029;-87
2022/04/07 00:21:46;;;;;;;6.35;2.42;;;12.60;99.90;;;;;;4870356;29;20033;-86
2022/04/07 00:24:13;;;;;;;3.08;1.73;;;12.70;99.90;;;;;;4870291;29;20028;-86
2022/04/07 00:26:40;;;;;;;7.25;2.50;;;12.70;99.90;;;;;;4870467;29;20039;-86
2022/04/07 00:29:07;;;;;;;8.60;1.75;;;12.70;99.90;;;;;;4870167;29;20077;-86
2022/04/07 00:31:40;;;;;;;13.45;1.92;;;12.70;99.90;;;;;;4869977;29;20028;-88
2022/04/07 00:34:07;;;;;;;7.25;1.80;;;12.60;99.90;;;;;;4870136;29;20137;-87
2022/04/07 00:36:34;;;;;;;4.60;1.30;;;12.60;99.90;;;;;;4870045;29;20033;-86
2022/04/07 00:39:01;;;;;;;6.70;1.65;;;12.60;99.90;;;;;;4870035;29;20096;-86
2022/04/07 00:41:27;;;;;;;4.05;1.55;;;12.60;99.90;;;;;;4870152;29;20036;-87
2022/04/07 00:43:54;;;;;;;3.60;1.60;;;12.50;99.90;;;;;;4869948;29;20115;-87
2022/04/07 00:46:21;;;;;;;7.22;1.27;;;12.50;99.90;;;;;;4869822;29;20419;-86
2022/04/07 00:48:47;;;;;;;11.27;2.22;;;12.60;99.90;;;;;;4869814;29;20032;-86
2022/04/07 00:51:14;;;;;;;4.38;1.55;;;12.60;99.90;;;;;;4869672;29;20043;-86
2022/04/07 00:53:41;;;;;;;2.67;1.48;;;12.60;99.90;;;;;;4869680;29;20032;-85
2022/04/07 00:56:09;;;;;;;5.72;1.85;;;12.50;99.90;;;;;;4869738;29;20041;-86
2022/04/07 00:58:36;;;;;;;3.75;1.27;;;12.50;99.90;;;;;;4869630;29;20043;-85
2022/04/07 01:01:03;;;;;;;7.70;1.45;;;12.60;99.90;;;;;;4869752;29;20039;-87
2022/04/07 01:03:30;;;;;;;4.18;1.27;;;12.50;99.90;;;;;;4869681;29;20053;-87
2022/04/07 01:05:57;;;;;;;6.10;1.33;;;12.50;99.90;;;;;;4869375;29;20033;-86
2022/04/07 01:08:23;;;;;;;7.78;1.27;;;12.50;99.90;;;;;;4869519;29;20060;-85
2022/04/07 01:10:51;;;;;;;3.95;1.77;;;12.50;99.90;;;;;;4869102;29;20136;-86
2022/04/07 01:13:18;;;;;;;14.55;1.67;;;12.50;99.90;;;;;;4869304;29;20040;-86
2022/04/07 01:15:45;;;;;;;9.18;1.45;;;12.50;99.90;;;;;;4869425;29;20439;-87
2022/04/07 01:18:15;;;;;;;2.00;1.02;;;12.50;99.90;;;;;;4869537;29;20076;-86
2022/04/07 01:20:41;;;;;;;8.18;1.65;;;12.50;99.90;;;;;;4868582;29;20036;-86
2022/04/07 01:23:09;;;;;;;2.75;1.05;;;12.50;99.90;;;;;;4869174;29;20029;-86
2022/04/07 01:25:37;;;;;;;5.68;1.25;;;12.50;99.90;;;;;;4869217;29;20048;-86
2022/04/07 01:28:04;;;;;;;2.20;1.23;;;12.60;99.90;;;;;;4869069;29;20447;-86
2022/04/07 01:30:32;;;;;;;2.35;1.05;;;12.50;99.90;;;;;;4868940;29;20045;-86
2022/04/07 01:33:00;;;;;;;9.60;1.50;;;12.50;99.90;;;;;;4869081;29;20029;-87
2022/04/07 01:35:29;;;;;;;9.32;1.48;;;12.50;99.90;;;;;;4869072;29;20494;-86
2022/04/07 01:37:57;;;;;;;1.67;0.93;;;12.50;99.90;;;;;;4869175;29;20088;-86
2022/04/07 01:40:33;;;;;;;9.77;1.67;;;12.50;99.90;;;;;;4868785;29;20040;-85
2022/04/07 01:43:05;;;;;;;2.85;1.05;;;12.50;99.90;;;;;;4868923;29;20033;-86
2022/04/07 01:45:35;;;;;;;8.27;1.65;;;12.50;99.90;;;;;;4868822;29;20080;-86
2022/04/07 01:48:03;;;;;;;5.55;1.42;;;12.50;99.90;;;;;;4868814;29;20482;-86
2022/04/07 01:50:30;;;;;;;4.70;1.10;;;12.50;99.90;;;;;;4868596;29;20501;-86
2022/04/07 01:52:58;;;;;;;13.95;1.33;;;12.50;99.90;;;;;;4868755;29;20029;-86
2022/04/07 01:55:26;;;;;;;4.28;1.02;;;12.50;99.90;;;;;;4868866;29;20025;-86
2022/04/07 01:57:54;;;;;;;4.82;1.20;;;12.50;99.90;;;;;;4868517;29;20104;-86
2022/04/07 02:00:20;;;;;;;2.50;1.33;;;12.50;99.90;;;;;;4868658;29;20060;-86
2022/04/07 02:02:48;;;;;;;3.30;1.45;;;12.40;99.90;;;;;;4868567;29;20040;-87
2022/04/07 02:05:15;;;;;;;1.45;0.77;;;12.30;99.90;;;;;;4868540;29;20025;-87
2022/04/07 02:07:47;;;;;;;8.23;1.50;;;12.40;99.90;;;;;;4869004;29;20071;-87
2022/04/07 02:10:15;;;;;;;12.00;2.22;;;12.40;99.90;;;;;;4868191;29;20050;-86
2022/04/07 02:12:43;;;;;;;6.70;2.50;;;12.40;99.90;;;;;;4868278;29;20055;-87
2022/04/07 02:15:12;;;;;;;2.78;1.25;;;12.50;99.90;;;;;;4883886;29;20478;-87
2022/04/07 02:17:39;;;;;;;1.52;1.08;;;12.50;99.90;;;;;;4868429;29;20033;-86
2022/04/07 02:20:08;;;;;;;5.15;1.30;;;12.50;99.90;;;;;;4868305;29;20025;-87
2022/04/07 02:22:35;;;;;;;6.47;1.45;;;12.50;99.90;;;;;;4868171;29;20040;-86
2022/04/07 02:25:03;;;;;;;5.60;1.45;;;12.40;99.90;;;;;;4868324;29;20025;-87
2022/04/07 02:27:44;;;;;;;7.45;0.98;;;12.40;99.90;;;;;;4868178;29;20036;-86
2022/04/07 02:30:17;;;;;;;3.70;1.15;;;12.40;99.90;;;;;;4868063;29;20387;-86
2022/04/07 02:32:44;;;;;;;3.60;1.98;;;12.40;99.90;;;;;;4868294;29;20092;-86
2022/04/07 02:35:12;;;;;;;11.00;1.70;;;12.40;99.90;;;;;;4867951;29;20028;-87
2022/04/07 02:37:40;;;;;;;9.43;1.42;;;12.50;99.90;;;;;;4867955;29;20379;-87
2022/04/07 02:40:08;;;;;;;1.55;0.75;;;12.50;99.90;;;;;;4867775;29;20021;-86
2022/04/07 02:42:35;;;;;;;3.65;1.27;;;12.50;99.90;;;;;;4867928;29;20033;-86
2022/04/07 02:45:06;;;;;;;4.25;0.93;;;12.50;99.90;;;;;;4867705;29;20027;-86
2022/04/07 02:47:40;;;;;;;4.45;1.20;;;12.40;99.90;;;;;;4867874;29;20036;-86
2022/04/07 02:50:07;;;;;;;3.55;1.17;;;12.40;99.90;;;;;;4867785;29;20044;-86
2022/04/07 02:52:34;;;;;;;2.72;2.05;;;12.40;99.90;;;;;;4867591;29;20112;-86
2022/04/07 02:55:03;;;;;;;5.13;1.30;;;12.50;99.90;;;;;;4867557;29;20029;-87
2022/04/07 02:57:30;;;;;;;2.88;1.05;;;12.50;99.90;;;;;;4867657;29;20079;-85
2022/04/07 03:00:07;;;;;;;6.63;2.20;;;12.50;99.90;;;;;;4867480;29;20060;-86
2022/04/07 03:02:39;;;;;;;13.35;1.00;;;12.50;99.90;;;;;;4867461;29;20033;-87
2022/04/07 03:05:07;;;;;;;4.15;1.42;;;12.40;99.90;;;;;;4867555;29;20032;-86
2022/04/07 03:07:36;;;;;;;8.60;1.30;;;12.40;99.90;;;;;;4867442;29;20391;-86
2022/04/07 03:10:06;;;;;;;5.57;0.93;;;12.40;99.90;;;;;;4867271;29;20063;-86
2022/04/07 03:12:33;;;;;;;4.18;2.40;;;12.40;99.90;;;;;;4883813;29;20052;-88
2022/04/07 03:14:59;;;;;;;3.45;1.27;;;12.40;99.90;;;;;;4886026;29;20036;-87
2022/04/07 03:17:26;;;;;;;4.70;1.40;;;12.40;99.90;;;;;;4886086;29;20036;-88
2022/04/07 03:19:55;;;;;;;11.40;1.88;;;12.40;99.90;;;;;;4885829;29;20509;-87
2022/04/07 03:22:22;;;;;;;2.60;0.90;;;12.40;99.90;;;;;;4885950;29;20504;-87
2022/04/07 03:24:49;;;;;;;7.40;1.55;;;12.40;99.90;;;;;;4901519;29;20024;-88
2022/04/07 03:27:19;;;;;;;5.65;1.35;;;12.50;99.90;;;;;;4885667;29;20040;-88
2022/04/07 03:29:46;;;;;;;5.50;2.20;;;12.50;99.90;;;;;;4885647;29;20383;-89
2022/04/07 03:32:12;;;;;;;4.57;1.40;;;12.40;99.90;;;;;;4885846;29;20028;-87
2022/04/07 03:34:39;;;;;;;4.80;0.95;;;12.40;99.90;;;;;;4885792;29;20036;-90
2022/04/07 03:37:07;;;;;;;4.18;1.30;;;12.40;99.90;;;;;;4901201;29;20036;-88
2022/04/07 03:39:34;;;;;;;14.75;1.85;;;12.40;99.90;;;;;;4901726;29;20478;-89
2022/04/07 03:42:00;;;;;;;3.83;0.88;;;12.40;99.90;;;;;;4885716;29;20036;-91
2022/04/07 03:44:27;;;;;;;15.63;1.98;;;12.40;99.90;;;;;;4885539;29;20028;-89
2022/04/07 03:46:54;;;;;;;3.28;1.30;;;12.30;99.90;;;;;;4885821;29;20036;-91
2022/04/07 03:49:21;;;;;;;3.53;1.02;;;12.30;99.90;;;;;;4885717;29;20028;-89
2022/04/07 03:51:50;;;;;;;10.82;2.28;;;12.30;99.90;;;;;;4901359;29;20047;-92
2022/04/07 03:54:17;;;;;;;3.45;1.60;;;12.30;99.90;;;;;;4886205;29;20051;-89
2022/04/07 03:56:45;;;;;;;4.72;1.58;;;12.30;99.90;;;;;;4901715;29;20039;-89
2022/04/07 03:59:12;;;;;;;5.88;1.13;;;12.30;99.90;;;;;;4901483;29;20032;-85
2022/04/07 04:01:40;;;;;;;8.23;1.23;;;12.30;99.90;;;;;;4885369;29;20036;-82
2022/04/07 04:04:07;;;;;;;10.25;1.10;;;12.20;99.90;;;;;;4900864;29;20028;-85
2022/04/07 04:06:34;;;;;;;6.10;1.80;;;12.20;99.90;;;;;;4885440;29;20028;-89
2022/04/07 04:09:04;;;;;;;7.18;1.17;;;12.20;99.90;;;;;;4900993;29;20067;-91
2022/04/07 04:11:30;;;;;;;1.35;1.10;;;12.10;99.90;;;;;;4876502;29;20048;-89
2022/04/07 04:13:57;;;;;;;4.95;1.00;;;12.10;99.90;;;;;;4866796;29;20116;-90
2022/04/07 04:16:24;;;;;;;3.17;1.45;;;12.10;99.90;;;;;;4867234;29;20029;-83
2022/04/07 04:18:51;;;;;;;3.90;1.17;;;12.10;99.90;;;;;;4881974;29;20032;-91
2022/04/07 04:21:20;;;;;;;9.00;2.42;;;12.10;99.90;;;;;;4866531;29;20029;-90
2022/04/07 04:23:48;;;;;;;2.63;1.20;;;12.10;99.90;;;;;;4866702;29;20040;-91
2022/04/07 04:26:20;;;;;;;5.15;2.03;;;12.20;99.90;;;;;;4866628;29;20028;-90
2022/04/07 04:28:47;;;;;;;5.57;3.22;;;12.20;99.90;;;;;;4872073;29;20028;-91
2022/04/07 04:31:14;;;;;;;7.15;3.72;;;12.30;99.90;;;;;;4873886;29;20396;-90
2022/04/07 04:33:40;;;;;;;10.90;2.28;;;12.30;99.90;;;;;;4899094;29;20487;-89
2022/04/07 04:36:07;;;;;;;4.72;2.70;;;12.40;99.90;;;;;;4890111;29;20024;-91
2022/04/07 04:38:34;;;;;;;4.63;2.15;;;12.50;99.90;;;;;;4873940;29;20028;-91
2022/04/07 04:41:02;;;;;;;3.72;1.90;;;12.50;99.90;;;;;;4888526;29;20035;-91
2022/04/07 04:43:28;;;;;;;4.05;1.67;;;12.50;99.90;;;;;;4889836;29;20029;-91
2022/04/07 04:45:54;;;;;;;4.85;1.90;;;12.60;99.90;;;;;;4873613;29;20028;-92
2022/04/07 04:48:21;;;;;;;2.65;1.90;;;12.60;99.90;;;;;;4898692;29;20039;-90
2022/04/07 04:50:47;;;;;;;4.95;2.00;;;12.60;99.90;;;;;;4897482;29;20206;-92
2022/04/07 04:53:17;;;;;;;5.13;1.63;;;12.60;99.90;;;;;;4873568;29;20064;-89
2022/04/07 04:55:43;;;;;;;10.05;2.65;;;12.60;99.90;;;;;;4877598;29;20126;-92
2022/04/07 04:58:10;;;;;;;9.82;2.60;;;12.60;99.90;;;;;;4888837;29;20489;-89
2022/04/07 05:00:36;;;;;;;17.05;3.45;;;12.60;99.90;;;;;;4888294;29;20040;-93
2022/04/07 05:03:03;;;;;;;6.28;2.97;;;12.70;99.90;;;;;;4888141;29;20024;-94
2022/04/07 05:05:29;;;;;;;5.85;2.50;;;12.90;99.90;;;;;;4888284;29;20028;-85
2022/04/07 05:07:56;;;;;;;9.43;3.10;;;12.90;99.90;;;;;;4888411;29;20032;-90
2022/04/07 05:10:22;;;;;;;10.50;2.35;;;13.00;99.90;;;;;;4888134;29;20107;-87
2022/04/07 05:12:53;;;;;;;10.98;2.35;;;13.10;99.90;;;;;;4906645;29;20051;-88
2022/04/07 05:15:20;;;;;;;20.15;3.38;;;13.30;99.90;;;;;;4906813;29;20421;-91
2022/04/07 05:17:53;;;;;;;9.35;3.88;;;13.40;99.90;;;;;;4906876;29;20032;-85
2022/04/07 05:20:23;;;;;;;9.50;2.90;;;13.60;99.90;;;;;;4906416;29;20032;-90
2022/04/07 05:22:50;;;;;;;7.03;2.15;;;13.60;99.90;;;;;;4906789;29;20501;-88
2022/04/07 05:25:17;;;;;;;9.48;2.65;;;13.80;99.90;;;;;;4906923;29;20031;-94
2022/04/07 05:27:45;;;;;;;8.23;1.98;;;13.80;99.90;;;;;;4908268;29;20130;-92
2022/04/07 05:30:36;;;;;;;6.10;1.95;;;13.90;99.90;;;;;;4909919;29;20031;-95
2022/04/07 05:33:39;;;;;;;10.68;2.35;;;13.90;99.90;;;;;;4911277;29;20114;-94
2022/04/07 05:36:06;;;;;;;10.27;3.13;;;14.00;99.90;;;;;;4924641;29;20050;-94
2022/04/07 05:38:32;;;;;;;12.27;2.88;;;14.00;99.90;;;;;;4907047;29;20031;-92
2022/04/07 05:40:59;;;;;;;14.88;3.28;;;14.10;99.90;;;;;;4906539;29;20032;-92
2022/04/07 05:43:26;;;;;;;10.50;3.08;;;14.10;99.90;;;;;;4906582;29;20390;-91
2022/04/07 05:45:53;;;;;;;14.02;3.15;;;14.20;99.90;;;;;;4906888;29;20035;-93
2022/04/07 05:48:22;;;;;;;11.73;4.25;;;14.20;99.90;;;;;;4907271;29;20032;-93
2022/04/07 05:50:49;;;;;;;6.32;2.33;;;14.30;99.90;;;;;;4906417;29;20094;-92
2022/04/07 05:53:18;;;;;;;12.57;2.83;;;14.30;99.90;;;;;;4909052;29;20038;-92
2022/04/07 05:55:45;;;;;;;11.32;3.28;;;14.30;99.90;;;;;;4906229;29;20035;-89
2022/04/07 05:58:13;;;;;;;8.07;2.20;;;14.30;99.90;;;;;;4906063;29;20030;-92
2022/04/07 06:00:40;;;;;;;13.75;3.05;;;14.20;99.90;;;;;;4905926;29;20063;-93
2022/04/07 06:03:07;;;;;;;9.68;2.88;;;14.20;99.90;;;;;;4905831;29;20473;-91
2022/04/07 06:05:35;;;;;;;8.02;2.13;;;14.20;99.90;;;;;;4906142;29;20035;-92
2022/04/07 06:08:03;;;;;;;7.70;2.38;;;14.20;99.90;;;;;;4905596;29;20023;-92
2022/04/07 06:10:30;;;;;;;10.25;2.60;;;14.20;99.90;;;;;;4905528;29;20122;-93
2022/04/07 06:13:00;;;;;;;11.02;2.33;;;14.20;99.90;;;;;;4906182;29;20044;-92
2022/04/07 06:18:34;;;;;;;9.48;2.72;;;14.40;99.90;;;;;;4925092;23;20159;-93
2022/04/07 06:21:04;;;;;;;8.45;2.13;;;14.70;99.90;;;;;;4887339;29;20042;-93
2022/04/07 06:23:33;;;;;;;6.00;1.70;;;14.80;99.90;;;;;;4887383;29;20036;-94
2022/04/07 06:42:22;;;;;;;9.48;2.30;;;16.20;99.90;;;;;;5076519;23;20055;-89
2022/04/07 06:44:51;;;;;;;9.52;2.22;;;16.50;99.90;;;;;;4902154;29;20024;-90
2022/04/07 06:47:17;;;;;;;3.72;1.67;;;16.70;99.90;;;;;;4902176;29;20087;-92
2022/04/07 06:49:49;;;;;;;9.90;2.17;;;17.00;99.90;;;;;;4901841;29;20062;-92
2022/04/07 06:52:17;;;;;;;6.18;2.03;;;16.90;99.90;;;;;;4917957;29;20044;-92
2022/04/07 06:54:44;;;;;;;6.65;1.92;;;17.40;99.90;;;;;;4907065;29;20474;-91
2022/04/07 06:57:11;;;;;;;10.15;1.95;;;17.60;99.90;;;;;;4914420;29;20032;-91
2022/04/07 06:59:38;;;;;;;8.05;1.50;;;18.00;99.90;;;;;;4917470;29;20032;-91
2022/04/07 07:02:04;;;;;;;8.18;2.47;;;18.00;99.90;;;;;;4914193;29;20033;-91
2022/04/07 07:04:32;;;;;;;10.75;2.92;;;17.90;99.90;;;;;;4916569;29;20111;-91
2022/04/07 07:06:59;;;;;;;3.97;1.58;;;18.40;99.90;;;;;;4914273;29;20033;-90
2022/04/07 07:09:28;;;;;;;6.57;1.77;;;18.50;99.90;;;;;;4915487;29;20036;-92
2022/04/07 07:11:55;;;;;;;6.43;1.70;;;18.50;99.90;;;;;;4914120;29;20099;-92
2022/04/07 07:14:21;;;;;;;3.08;1.13;;;18.30;99.90;;;;;;4915049;29;20028;-92
2022/04/07 07:16:48;;;;;;;14.63;1.75;;;19.00;99.90;;;;;;4914199;29;20032;-91
2022/04/07 07:19:18;;;;;;;7.13;1.85;;;19.70;99.90;;;;;;4913591;29;20495;-90
2022/04/07 07:21:45;;;;;;;6.47;1.13;;;19.20;99.90;;;;;;4914234;29;20084;-90
2022/04/07 07:24:12;;;;;;;4.45;0.98;;;19.20;99.90;;;;;;4914469;29;20034;-92
2022/04/07 07:26:42;;;;;;;4.53;1.10;;;19.00;99.90;;;;;;4917211;29;20028;-92
2022/04/07 07:29:08;;;;;;;6.40;1.40;;;18.60;99.90;;;;;;4918104;29;20028;-91
2022/04/07 07:31:36;;;;;;;2.83;0.75;;;19.00;99.90;;;;;;4917637;29;20487;-89
2022/04/07 07:34:03;;;;;;;3.78;0.60;;;18.80;99.90;;;;;;4914087;29;20115;-93
2022/04/07 07:36:35;;;;;;;10.40;1.75;;;18.90;99.90;;;;;;4916505;29;20033;-92
2022/04/07 07:39:14;;;;;;;6.22;1.20;;;19.50;99.90;;;;;;4914257;29;20407;-91
2022/04/07 07:41:41;;;;;;;5.57;1.35;;;20.30;99.90;;;;;;4913693;29;20075;-91
2022/04/07 07:44:08;;;;;;;4.75;1.33;;;21.50;99.90;;;;;;4917047;29;20036;-90
2022/04/07 07:46:34;;;;;;;9.27;1.23;;;21.60;99.90;;;;;;4923606;29;20052;-90
2022/04/07 07:49:05;;;;;;;3.05;1.08;;;21.60;99.90;;;;;;4913720;29;20024;-89
2022/04/07 07:51:32;;;;;;;30.55;3.90;;;21.50;99.90;;;;;;4917047;29;20040;-92
2022/04/07 07:53:59;;;;;;;2.88;0.88;;;20.50;99.90;;;;;;4913781;29;20029;-90
2022/04/07 07:56:26;;;;;;;10.27;1.38;;;19.90;99.90;;;;;;4915059;29;20505;-88
2022/04/07 07:58:52;;;;;;;7.05;1.52;;;20.10;99.90;;;;;;4913816;29;20028;-90
2022/04/07 08:01:19;;;;;;;13.30;1.67;;;20.50;99.90;;;;;;4914329;29;20056;-90
2022/04/07 08:03:45;;;;;;;14.88;2.10;;;20.00;99.90;;;;;;4913570;29;20035;-90
2022/04/07 08:06:12;;;;;;;7.03;2.15;;;19.30;99.90;;;;;;4913658;29;20071;-90
2022/04/07 08:08:38;;;;;;;2.78;0.55;;;19.30;99.90;;;;;;4917024;29;20025;-89
2022/04/07 08:11:07;;;;;;;6.45;1.70;;;19.50;99.90;;;;;;4913430;29;20045;-91
2022/04/07 08:13:34;;;;;;;7.32;1.15;;;20.10;99.90;;;;;;4916471;29;20029;-88
2022/04/07 08:16:00;;;;;;;4.85;1.10;;;20.60;99.90;;;;;;4913460;29;20102;-87
2022/04/07 08:18:27;;;;;;;3.08;1.25;;;20.50;99.90;;;;;;4915049;29;20025;-86
2022/04/07 08:20:53;;;;;;;10.55;1.58;;;20.50;99.90;;;;;;4913267;29;20032;-85
2022/04/07 08:23:26;;;;;;;5.53;1.00;;;20.70;99.90;;;;;;4914320;29;20021;-85
2022/04/07 08:25:53;;;;;;;2.53;1.17;;;21.00;99.90;;;;;;4913401;29;20029;-87
2022/04/07 08:28:19;;;;;;;14.45;1.85;;;21.20;99.90;;;;;;4914040;29;20079;-88
2022/04/07 08:30:46;;;;;;;3.67;1.02;;;21.40;99.90;;;;;;4915478;29;20045;-87
2022/04/07 08:33:16;;;;;;;3.88;1.33;;;21.30;99.90;;;;;;4916901;29;20044;-93
2022/04/07 08:35:43;;;;;;;3.22;0.77;;;20.80;99.90;;;;;;4913045;29;20032;-92
2022/04/07 08:38:14;;;;;;;2.70;0.93;;;20.40;99.90;;;;;;4920192;29;20024;-90
2022/04/07 08:40:42;;;;;;;6.65;1.08;;;20.30;99.90;;;;;;4914118;29;20051;-90
2022/04/07 08:43:10;;;;;;;4.53;1.25;;;20.60;99.90;;;;;;4866931;29;20436;-92
2022/04/07 08:45:37;;;;;;;4.18;1.10;;;20.50;99.90;;;;;;4882480;29;20124;-91
2022/04/07 10:41:37;;;;;;;5.30;0.88;;;19.50;99.90;;;;;;5151814;23;1637246;-91
2022/04/07 10:44:14;;;;;;;4.47;1.40;;;19.60;99.90;;;;;;4886683;29;20044;-91
2022/04/07 10:46:41;;;;;;;1.70;0.52;;;19.40;99.90;;;;;;4886501;29;20040;-91
2022/04/07 10:49:12;;;;;;;7.47;1.63;;;19.60;99.90;;;;;;4883038;29;20029;-92
2022/04/07 10:51:47;;;;;;;9.60;2.13;;;19.10;99.90;;;;;;4898656;29;20092;-91
2022/04/07 10:54:14;;;;;;;6.25;1.45;;;19.50;99.90;;;;;;4898047;29;20036;-91
2022/04/07 10:56:48;;;;;;;5.35;1.85;;;19.70;99.90;;;;;;4898688;29;20028;-91
2022/04/07 10:59:31;;;;;;;3.53;0.70;;;19.50;99.90;;;;;;4898949;29;20051;-93
2022/04/07 11:02:05;;;;;;;6.53;0.75;;;19.60;99.90;;;;;;4898783;29;20033;-92
2022/04/07 11:04:35;;;;;;;2.45;0.68;;;19.80;99.90;;;;;;4898619;29;20036;-90
2022/04/07 11:07:07;;;;;;;6.43;0.95;;;19.70;99.90;;;;;;4898607;29;20032;-93
2022/04/07 11:10:00;;;;;;;7.07;1.65;;;19.50;99.90;;;;;;4882687;29;20474;-91
2022/04/07 11:13:00;;;;;;;5.93;1.30;;;19.30;99.90;;;;;;4882924;29;20033;-90
2022/04/07 11:16:03;;;;;;;4.00;1.50;;;19.10;99.90;;;;;;4898792;29;20029;-92
2022/04/07 11:18:32;;;;;;;3.78;1.00;;;18.80;99.90;;;;;;4827276;29;20504;-90
2022/04/07 11:21:10;;;;;;;3.35;2.13;;;18.60;99.90;;;;;;4826958;29;20037;-90
2022/04/07 11:24:08;;;;;;;3.85;1.67;;;18.70;99.90;;;;;;4842247;29;20037;-92
2022/04/07 11:26:34;;;;;;;4.40;1.88;;;18.80;99.90;;;;;;4824506;29;20194;-94
2022/04/07 11:29:05;;;;;;;5.75;1.75;;;18.90;99.90;;;;;;4824349;29;20049;-92
2022/04/07 11:31:49;;;;;;;3.22;1.00;;;19.20;99.90;;;;;;4823958;29;20059;-90
2022/04/07 11:34:39;;;;;;;3.63;1.05;;;19.10;99.90;;;;;;4808802;29;20034;-90
2022/04/07 11:37:10;;;;;;;1.98;1.25;;;19.20;99.90;;;;;;4808680;29;20133;-92
2022/04/07 11:39:41;;;;;;;6.28;2.00;;;19.20;99.90;;;;;;4823726;29;20046;-91
2022/04/07 11:42:08;;;;;;;6.22;1.90;;;19.00;99.90;;;;;;4823820;29;20059;-93
2022/04/07 11:44:34;;;;;;;3.15;1.35;;;19.00;99.90;;;;;;4825051;29;20087;-92
2022/04/07 11:47:01;;;;;;;3.67;1.35;;;18.70;99.90;;;;;;4809866;29;20046;-92
2022/04/07 11:49:29;;;;;;;7.75;1.15;;;18.60;99.90;;;;;;4819328;29;20048;-90
2022/04/07 11:51:55;;;;;;;2.65;1.38;;;18.50;99.90;;;;;;4816164;29;20051;-89
2022/04/07 11:54:23;;;;;;;17.58;2.95;;;18.50;99.90;;;;;;4833060;29;20082;-93
2022/04/07 11:56:50;;;;;;;2.40;1.45;;;18.30;99.90;;;;;;4860315;29;20045;-91
2022/04/07 11:59:18;;;;;;;6.78;1.40;;;18.00;99.90;;;;;;4860170;29;20117;-93
2022/04/07 12:01:45;;;;;;;5.15;1.77;;;18.00;99.90;;;;;;4830716;29;20082;-93
2022/04/07 12:04:13;;;;;;;6.50;2.33;;;17.80;99.90;;;;;;4898329;29;20032;-93
2022/04/07 12:06:47;;;;;;;6.07;1.75;;;17.80;99.90;;;;;;4904316;29;20052;-91
2022/04/07 12:09:14;;;;;;;18.95;2.95;;;17.90;99.90;;;;;;4903845;29;20529;-91
2022/04/07 12:11:41;;;;;;;9.23;2.03;;;17.60;99.90;;;;;;4901765;29;20045;-91
2022/04/07 12:14:15;;;;;;;8.32;2.03;;;17.30;99.90;;;;;;4903200;29;20029;-91
2022/04/07 12:16:48;;;;;;;8.75;2.17;;;17.10;99.90;;;;;;4900910;29;20084;-90
2022/04/07 12:19:21;;;;;;;14.23;2.55;;;17.10;99.90;;;;;;4901420;29;20048;-93
2022/04/07 12:21:57;;;;;;;7.45;2.30;;;16.90;99.90;;;;;;4901836;29;20044;-92
2022/04/07 12:24:28;;;;;;;8.70;2.53;;;16.80;99.90;;;;;;4901631;29;20084;-92
2022/04/07 12:26:59;;;;;;;14.48;2.75;;;16.60;99.90;;;;;;4901752;29;20048;-93
2022/04/07 12:29:30;;;;;;;5.45;2.42;;;16.50;99.90;;;;;;4902038;29;20028;-92
2022/04/07 12:32:06;;;;;;;3.63;1.75;;;16.60;99.90;;;;;;4903523;29;20044;-92
2022/04/07 12:34:34;;;;;;;10.07;2.50;;;16.60;99.90;;;;;;4904696;29;20056;-92
2022/04/07 12:37:01;;;;;;;8.20;2.13;;;16.60;99.90;;;;;;4901601;29;20120;-92
2022/04/07 12:39:32;;;;;;;2.88;1.45;;;16.60;99.90;;;;;;4900781;29;20060;-92
2022/04/07 12:42:13;;;;;;;9.23;2.03;;;16.60;99.90;;;;;;4902229;29;20048;-93
2022/04/07 12:44:43;;;;;;;6.05;1.45;;;16.70;99.90;;;;;;4885787;29;20032;-92
2022/04/07 12:47:12;;;;;;;8.98;2.08;;;16.80;99.90;;;;;;4900997;29;20052;-92
2022/04/07 12:49:40;;;;;;;9.70;1.92;;;16.90;99.90;;;;;;4885362;29;20120;-92
2022/04/07 12:52:14;;;;;;;3.30;1.30;;;16.70;99.90;;;;;;4901052;29;20032;-92
2022/04/07 12:55:04;;;;;;;4.10;1.63;;;16.80;99.90;;;;;;4901011;29;20033;-94
2022/04/07 12:57:38;;;;;;;3.38;1.63;;;16.80;99.90;;;;;;4902284;29;20054;-91
2022/04/07 13:00:12;;;;;;;7.72;1.40;;;16.60;99.90;;;;;;4900967;29;20033;-94
2022/04/07 13:03:01;;;;;;;1.13;1.02;;;16.60;99.90;;;;;;4900902;29;20073;-91
2022/04/07 13:05:34;;;;;;;4.05;1.20;;;16.40;99.90;;;;;;4900787;29;20036;-90
2022/04/07 13:08:03;;;;;;;10.70;1.50;;;16.30;99.90;;;;;;4900823;29;20028;-93
2022/04/07 13:10:31;;;;;;;5.13;1.50;;;16.00;99.90;;;;;;4900577;29;20426;-90
2022/04/07 13:12:58;;;;;;;10.10;2.03;;;15.90;99.90;;;;;;4900599;29;20028;-92
2022/04/07 13:15:25;;;;;;;3.17;1.77;;;15.90;99.90;;;;;;4902307;29;20115;-93
2022/04/07 13:17:52;;;;;;;7.38;2.38;;;15.70;99.90;;;;;;4900353;29;20029;-91
2022/04/07 13:20:18;;;;;;;8.50;2.88;;;15.60;99.90;;;;;;4900602;29;20028;-91
2022/04/07 13:22:45;;;;;;;3.67;2.03;;;15.40;99.90;;;;;;4900622;29;20032;-93
2022/04/07 13:25:12;;;;;;;9.27;3.95;;;15.60;99.90;;;;;;4900930;29;20033;-92
2022/04/07 13:27:40;;;;;;;4.82;2.33;;;15.90;99.90;;;;;;4900627;29;20024;-91
2022/04/07 13:30:08;;;;;;;3.90;1.90;;;15.90;99.90;;;;;;4900180;29;20037;-93
2022/04/07 13:32:34;;;;;;;11.18;2.28;;;15.80;99.90;;;;;;4900603;29;20032;-92
2022/04/07 13:35:00;;;;;;;6.10;2.00;;;15.70;99.90;;;;;;4900405;29;20502;-93
2022/04/07 13:37:27;;;;;;;1.98;1.10;;;15.70;99.90;;;;;;4900589;29;20043;-92
2022/04/07 13:39:53;;;;;;;2.63;0.77;;;15.40;99.90;;;;;;4900398;29;20034;-93
2022/04/07 13:42:19;;;;;;;2.15;0.75;;;15.20;99.90;;;;;;4899971;29;20154;-94
2022/04/07 13:44:46;;;;;;;5.03;1.15;;;15.30;99.90;;;;;;4900317;29;20029;-92
2022/04/07 13:47:12;;;;;;;2.22;1.13;;;15.20;99.90;;;;;;4900621;29;20403;-93
2022/04/07 13:49:42;;;;;;;3.13;1.00;;;15.00;99.90;;;;;;4900352;29;20060;-94
2022/04/07 13:52:10;;;;;;;3.33;1.45;;;15.00;99.90;;;;;;4897910;29;20028;-94
2022/04/07 13:54:43;;;;;;;4.82;0.82;;;14.90;99.90;;;;;;4893232;29;20115;-93
2022/04/07 13:57:09;;;;;;;6.90;1.63;;;15.10;99.90;;;;;;4885358;29;20059;-94
2022/04/07 13:59:37;;;;;;;4.10;1.38;;;15.10;99.90;;;;;;4903274;29;20025;-93
2022/04/07 14:02:11;;;;;;;5.70;2.17;;;15.20;99.90;;;;;;4901358;29;20032;-91
2022/04/07 14:05:09;;;;;;;1.80;1.20;;;15.20;99.90;;;;;;4905566;29;20039;-95
2022/04/07 14:07:35;;;;;;;4.15;1.95;;;15.10;99.90;;;;;;4917099;29;20037;-92
2022/04/07 14:10:03;;;;;;;4.18;1.77;;;15.00;99.90;;;;;;4912587;29;20045;-94
2022/04/07 14:12:30;;;;;;;6.70;2.58;;;15.10;99.90;;;;;;4903713;29;20039;-91
2022/04/07 14:14:56;;;;;;;8.50;3.13;;;15.20;99.90;;;;;;4899932;29;20024;-92
2022/04/07 14:17:22;;;;;;;7.53;3.13;;;15.40;99.90;;;;;;4884930;29;20096;-92
2022/04/07 14:19:52;;;;;;;11.60;2.63;;;15.50;99.90;;;;;;4903390;29;20029;-94
2022/04/07 14:22:18;;;;;;;7.68;3.67;;;15.40;99.90;;;;;;4899665;29;20119;-92
2022/04/07 14:24:45;;;;;;;3.10;1.70;;;15.30;99.90;;;;;;4868404;29;20037;-95
2022/04/07 14:27:11;;;;;;;7.72;3.35;;;15.30;99.90;;;;;;4899484;29;20107;-93
2022/04/07 14:29:37;;;;;;;4.20;2.33;;;15.20;99.90;;;;;;4883642;29;20035;-94
2022/04/07 14:32:08;;;;;;;11.15;4.15;;;15.30;99.90;;;;;;4899747;29;20044;-93
2022/04/07 14:34:37;;;;;;;7.65;3.60;;;15.30;99.90;;;;;;4899374;29;20032;-92
2022/04/07 14:37:06;;;;;;;6.63;3.30;;;15.20;99.90;;;;;;4899270;29;20506;-93
2022/04/07 14:39:35;;;;;;;12.63;4.30;;;15.20;99.90;;;;;;4899508;29;20131;-93
2022/04/07 14:42:02;;;;;;;9.55;2.67;;;15.10;99.90;;;;;;4898903;29;20502;-93
2022/04/07 14:44:28;;;;;;;6.95;2.97;;;15.20;99.90;;;;;;4899732;29;20029;-92
2022/04/07 14:46:55;;;;;;;9.15;4.05;;;15.40;99.90;;;;;;4883783;29;20043;-92
2022/04/07 14:49:21;;;;;;;4.65;2.70;;;15.50;99.90;;;;;;4898771;29;20050;-93
2022/04/07 14:51:48;;;;;;;6.35;2.72;;;15.60;99.90;;;;;;4899163;29;20036;-92
2022/04/07 14:54:15;;;;;;;7.90;3.10;;;15.60;99.90;;;;;;4899150;29;20028;-93
2022/04/07 14:56:41;;;;;;;6.82;2.72;;;15.70;99.90;;;;;;4900441;29;20516;-93
2022/04/07 14:59:08;;;;;;;13.13;3.42;;;15.70;99.90;;;;;;4900708;29;20067;-93
2022/04/07 15:01:34;;;;;;;5.55;3.20;;;15.90;99.90;;;;;;4904675;29;20028;-94
2022/04/07 15:04:00;;;;;;;3.58;2.10;;;15.90;99.90;;;;;;4898671;29;20084;-92
2022/04/07 15:06:27;;;;;;;8.10;3.97;;;15.80;99.90;;;;;;4899166;29;20459;-92
2022/04/07 15:08:53;;;;;;;6.28;3.28;;;15.70;99.90;;;;;;4898360;29;20072;-92